sensor_id;sensor_type;location;lat;lon;timestamp;P1;durP1;ratioP1;P2;durP2;ratioP2
23362;SDS011;11853;48.080;11.960;2022-09-09T00:00:23;1.80;;;1.70;;
23362;SDS011;11853;48.080;11.960;2022-09-09T00:03:12;2.17;;;1.67;;
23362;SDS011;11853;48.080;11.960;2022-09-09T00:11:33;6.07;;;1.80;;
23362;SDS011;11853;48.080;11.960;2022-09-09T00:14:13;1.73;;;1.50;;
23362;SDS011;11853;48.080;11.960;2022-09-09T00:16:50;2.03;;;1.75;;
23362;SDS011;11853;48.080;11.960;2022-09-09T00:22:24;1.98;;;1.58;;
23362;SDS011;11853;48.080;11.960;2022-09-09T00:24:53;1.90;;;1.80;;
23362;SDS011;11853;48.080;11.960;2022-09-09T00:30:19;5.20;;;2.25;;
23362;SDS011;11853;48.080;11.960;2022-09-09T00:32:55;2.55;;;1.67;;
23362;SDS011;11853;48.080;11.960;2022-09-09T00:35:38;3.83;;;2.00;;
23362;SDS011;11853;48.080;11.960;2022-09-09T00:38:16;2.28;;;2.08;;
23362;SDS011;11853;48.080;11.960;2022-09-09T00:43:28;3.28;;;1.77;;
23362;SDS011;11853;48.080;11.960;2022-09-09T00:51:15;1.67;;;1.58;;
23362;SDS011;11853;48.080;11.960;2022-09-09T00:54:06;2.85;;;2.00;;
23362;SDS011;11853;48.080;11.960;2022-09-09T00:56:49;2.83;;;1.85;;
23362;SDS011;11853;48.080;11.960;2022-09-09T01:01:53;2.17;;;1.63;;
23362;SDS011;11853;48.080;11.960;2022-09-09T01:04:23;4.20;;;1.88;;
23362;SDS011;11853;48.080;11.960;2022-09-09T01:07:18;2.58;;;1.98;;
23362;SDS011;11853;48.080;11.960;2022-09-09T01:10:18;2.33;;;1.80;;
23362;SDS011;11853;48.080;11.960;2022-09-09T01:12:43;3.95;;;1.83;;
23362;SDS011;11853;48.080;11.960;2022-09-09T01:15:14;5.50;;;1.83;;
23362;SDS011;11853;48.080;11.960;2022-09-09T01:23:00;1.60;;;1.50;;
23362;SDS011;11853;48.080;11.960;2022-09-09T01:28:12;2.92;;;1.85;;
23362;SDS011;11853;48.080;11.960;2022-09-09T01:30:44;2.15;;;1.80;;
23362;SDS011;11853;48.080;11.960;2022-09-09T01:33:14;2.10;;;1.63;;
23362;SDS011;11853;48.080;11.960;2022-09-09T01:38:30;1.65;;;1.55;;
23362;SDS011;11853;48.080;11.960;2022-09-09T01:40:58;2.42;;;1.45;;
23362;SDS011;11853;48.080;11.960;2022-09-09T01:43:24;4.22;;;1.90;;
23362;SDS011;11853;48.080;11.960;2022-09-09T01:45:52;2.85;;;1.63;;
23362;SDS011;11853;48.080;11.960;2022-09-09T01:48:20;1.77;;;1.60;;
23362;SDS011;11853;48.080;11.960;2022-09-09T01:50:47;1.95;;;1.60;;
23362;SDS011;11853;48.080;11.960;2022-09-09T01:53:14;1.55;;;1.33;;
23362;SDS011;11853;48.080;11.960;2022-09-09T01:55:42;2.03;;;1.38;;
23362;SDS011;11853;48.080;11.960;2022-09-09T02:00:56;1.48;;;1.38;;
23362;SDS011;11853;48.080;11.960;2022-09-09T02:03:36;1.77;;;1.67;;
23362;SDS011;11853;48.080;11.960;2022-09-09T02:08:53;2.30;;;2.00;;
23362;SDS011;11853;48.080;11.960;2022-09-09T02:11:22;2.60;;;2.40;;
23362;SDS011;11853;48.080;11.960;2022-09-09T02:14:00;2.60;;;1.98;;
23362;SDS011;11853;48.080;11.960;2022-09-09T02:19:45;2.38;;;1.85;;
23362;SDS011;11853;48.080;11.960;2022-09-09T02:22:15;1.70;;;1.60;;
23362;SDS011;11853;48.080;11.960;2022-09-09T02:24:44;3.78;;;1.73;;
23362;SDS011;11853;48.080;11.960;2022-09-09T02:27:11;3.20;;;1.80;;
23362;SDS011;11853;48.080;11.960;2022-09-09T02:29:40;2.58;;;1.80;;
23362;SDS011;11853;48.080;11.960;2022-09-09T02:32:14;2.00;;;1.77;;
23362;SDS011;11853;48.080;11.960;2022-09-09T02:34:45;2.50;;;1.85;;
23362;SDS011;11853;48.080;11.960;2022-09-09T02:37:26;2.22;;;1.73;;
23362;SDS011;11853;48.080;11.960;2022-09-09T02:39:56;2.53;;;1.70;;
23362;SDS011;11853;48.080;11.960;2022-09-09T02:42:22;1.40;;;1.30;;
23362;SDS011;11853;48.080;11.960;2022-09-09T02:44:49;3.08;;;2.08;;
23362;SDS011;11853;48.080;11.960;2022-09-09T02:47:33;1.67;;;1.42;;
23362;SDS011;11853;48.080;11.960;2022-09-09T02:50:05;2.58;;;1.33;;
23362;SDS011;11853;48.080;11.960;2022-09-09T02:58:20;1.88;;;1.73;;
23362;SDS011;11853;48.080;11.960;2022-09-09T03:00:47;2.38;;;1.73;;
23362;SDS011;11853;48.080;11.960;2022-09-09T03:03:16;3.83;;;1.90;;
23362;SDS011;11853;48.080;11.960;2022-09-09T03:05:43;4.43;;;1.75;;
23362;SDS011;11853;48.080;11.960;2022-09-09T03:08:09;6.93;;;2.00;;
23362;SDS011;11853;48.080;11.960;2022-09-09T03:10:36;5.47;;;1.63;;
23362;SDS011;11853;48.080;11.960;2022-09-09T03:13:02;2.25;;;1.63;;
23362;SDS011;11853;48.080;11.960;2022-09-09T03:15:35;1.63;;;1.52;;
23362;SDS011;11853;48.080;11.960;2022-09-09T03:18:01;1.70;;;1.60;;
23362;SDS011;11853;48.080;11.960;2022-09-09T03:20:27;1.27;;;1.20;;
23362;SDS011;11853;48.080;11.960;2022-09-09T03:22:54;2.40;;;1.75;;
23362;SDS011;11853;48.080;11.960;2022-09-09T03:25:21;2.35;;;1.70;;
23362;SDS011;11853;48.080;11.960;2022-09-09T03:27:51;1.90;;;1.70;;
23362;SDS011;11853;48.080;11.960;2022-09-09T03:30:20;1.90;;;1.63;;
23362;SDS011;11853;48.080;11.960;2022-09-09T03:32:46;3.22;;;1.67;;
23362;SDS011;11853;48.080;11.960;2022-09-09T03:35:13;2.45;;;1.52;;
23362;SDS011;11853;48.080;11.960;2022-09-09T03:37:39;1.38;;;1.27;;
23362;SDS011;11853;48.080;11.960;2022-09-09T03:40:04;1.98;;;1.75;;
23362;SDS011;11853;48.080;11.960;2022-09-09T03:42:31;1.70;;;1.60;;
23362;SDS011;11853;48.080;11.960;2022-09-09T03:44:56;1.67;;;1.58;;
23362;SDS011;11853;48.080;11.960;2022-09-09T03:47:23;1.45;;;1.30;;
23362;SDS011;11853;48.080;11.960;2022-09-09T03:49:48;1.60;;;1.50;;
23362;SDS011;11853;48.080;11.960;2022-09-09T03:52:14;2.00;;;1.58;;
23362;SDS011;11853;48.080;11.960;2022-09-09T03:54:41;2.05;;;1.52;;
23362;SDS011;11853;48.080;11.960;2022-09-09T03:57:08;2.10;;;1.25;;
23362;SDS011;11853;48.080;11.960;2022-09-09T03:59:34;1.92;;;1.10;;
23362;SDS011;11853;48.080;11.960;2022-09-09T04:02:00;1.58;;;1.48;;
23362;SDS011;11853;48.080;11.960;2022-09-09T04:04:26;1.35;;;1.25;;
23362;SDS011;11853;48.080;11.960;2022-09-09T04:06:52;3.60;;;1.60;;
23362;SDS011;11853;48.080;11.960;2022-09-09T04:09:19;1.70;;;1.60;;
23362;SDS011;11853;48.080;11.960;2022-09-09T04:11:44;1.35;;;1.20;;
23362;SDS011;11853;48.080;11.960;2022-09-09T04:14:11;1.27;;;1.17;;
23362;SDS011;11853;48.080;11.960;2022-09-09T04:16:38;1.40;;;1.30;;
23362;SDS011;11853;48.080;11.960;2022-09-09T04:19:04;1.80;;;1.15;;
23362;SDS011;11853;48.080;11.960;2022-09-09T04:21:31;1.88;;;1.35;;
23362;SDS011;11853;48.080;11.960;2022-09-09T04:23:57;2.78;;;1.40;;
23362;SDS011;11853;48.080;11.960;2022-09-09T04:26:23;4.07;;;1.73;;
23362;SDS011;11853;48.080;11.960;2022-09-09T04:28:49;1.60;;;1.50;;
23362;SDS011;11853;48.080;11.960;2022-09-09T04:31:16;1.73;;;1.63;;
23362;SDS011;11853;48.080;11.960;2022-09-09T04:33:45;1.85;;;1.48;;
23362;SDS011;11853;48.080;11.960;2022-09-09T04:36:11;2.75;;;1.75;;
23362;SDS011;11853;48.080;11.960;2022-09-09T04:38:38;1.55;;;1.30;;
23362;SDS011;11853;48.080;11.960;2022-09-09T04:41:04;1.77;;;1.35;;
23362;SDS011;11853;48.080;11.960;2022-09-09T04:43:31;1.60;;;1.50;;
23362;SDS011;11853;48.080;11.960;2022-09-09T04:45:56;1.33;;;1.23;;
23362;SDS011;11853;48.080;11.960;2022-09-09T04:48:24;1.63;;;1.45;;
23362;SDS011;11853;48.080;11.960;2022-09-09T04:50:57;3.72;;;1.45;;
23362;SDS011;11853;48.080;11.960;2022-09-09T04:53:27;2.35;;;1.30;;
23362;SDS011;11853;48.080;11.960;2022-09-09T04:56:02;2.97;;;1.25;;
23362;SDS011;11853;48.080;11.960;2022-09-09T04:58:32;1.70;;;1.20;;
23362;SDS011;11853;48.080;11.960;2022-09-09T05:01:08;2.78;;;1.70;;
23362;SDS011;11853;48.080;11.960;2022-09-09T05:03:45;1.73;;;1.40;;
23362;SDS011;11853;48.080;11.960;2022-09-09T05:06:12;2.55;;;1.40;;
23362;SDS011;11853;48.080;11.960;2022-09-09T05:08:39;1.85;;;1.35;;
23362;SDS011;11853;48.080;11.960;2022-09-09T05:11:20;2.75;;;1.40;;
23362;SDS011;11853;48.080;11.960;2022-09-09T05:13:51;2.25;;;1.65;;
23362;SDS011;11853;48.080;11.960;2022-09-09T05:16:17;2.00;;;1.40;;
23362;SDS011;11853;48.080;11.960;2022-09-09T05:18:44;2.53;;;1.50;;
23362;SDS011;11853;48.080;11.960;2022-09-09T05:21:11;1.67;;;1.35;;
23362;SDS011;11853;48.080;11.960;2022-09-09T05:23:38;1.90;;;1.55;;
23362;SDS011;11853;48.080;11.960;2022-09-09T05:26:05;3.83;;;1.40;;
23362;SDS011;11853;48.080;11.960;2022-09-09T05:28:33;3.17;;;1.40;;
23362;SDS011;11853;48.080;11.960;2022-09-09T05:31:04;2.35;;;1.42;;
23362;SDS011;11853;48.080;11.960;2022-09-09T05:33:34;1.40;;;1.30;;
23362;SDS011;11853;48.080;11.960;2022-09-09T05:36:02;1.70;;;1.23;;
23362;SDS011;11853;48.080;11.960;2022-09-09T05:38:33;2.08;;;1.20;;
23362;SDS011;11853;48.080;11.960;2022-09-09T05:41:03;1.88;;;1.10;;
23362;SDS011;11853;48.080;11.960;2022-09-09T05:43:29;3.20;;;1.63;;
23362;SDS011;11853;48.080;11.960;2022-09-09T05:46:11;2.17;;;1.30;;
23362;SDS011;11853;48.080;11.960;2022-09-09T05:48:41;1.20;;;1.10;;
23362;SDS011;11853;48.080;11.960;2022-09-09T05:51:12;5.15;;;1.50;;
23362;SDS011;11853;48.080;11.960;2022-09-09T05:53:42;1.98;;;1.40;;
23362;SDS011;11853;48.080;11.960;2022-09-09T05:56:15;1.70;;;1.35;;
23362;SDS011;11853;48.080;11.960;2022-09-09T05:58:42;1.40;;;1.30;;
23362;SDS011;11853;48.080;11.960;2022-09-09T06:01:10;2.55;;;1.20;;
23362;SDS011;11853;48.080;11.960;2022-09-09T06:03:39;3.58;;;1.48;;
23362;SDS011;11853;48.080;11.960;2022-09-09T06:06:07;1.42;;;1.30;;
23362;SDS011;11853;48.080;11.960;2022-09-09T06:08:36;1.50;;;1.40;;
23362;SDS011;11853;48.080;11.960;2022-09-09T06:11:04;1.83;;;1.42;;
23362;SDS011;11853;48.080;11.960;2022-09-09T06:13:40;1.35;;;1.25;;
23362;SDS011;11853;48.080;11.960;2022-09-09T06:16:10;3.40;;;1.45;;
23362;SDS011;11853;48.080;11.960;2022-09-09T06:18:40;3.45;;;1.50;;
23362;SDS011;11853;48.080;11.960;2022-09-09T06:21:08;1.55;;;1.30;;
23362;SDS011;11853;48.080;11.960;2022-09-09T06:23:40;1.65;;;1.33;;
23362;SDS011;11853;48.080;11.960;2022-09-09T06:26:07;2.75;;;1.55;;
23362;SDS011;11853;48.080;11.960;2022-09-09T06:28:33;4.65;;;1.42;;
23362;SDS011;11853;48.080;11.960;2022-09-09T06:31:00;3.67;;;1.60;;
23362;SDS011;11853;48.080;11.960;2022-09-09T06:33:30;1.52;;;1.42;;
23362;SDS011;11853;48.080;11.960;2022-09-09T06:35:56;1.88;;;1.67;;
23362;SDS011;11853;48.080;11.960;2022-09-09T06:38:23;2.60;;;1.80;;
23362;SDS011;11853;48.080;11.960;2022-09-09T06:40:56;2.28;;;1.73;;
23362;SDS011;11853;48.080;11.960;2022-09-09T06:43:24;2.08;;;1.88;;
23362;SDS011;11853;48.080;11.960;2022-09-09T06:45:56;3.88;;;2.13;;
23362;SDS011;11853;48.080;11.960;2022-09-09T06:48:29;4.15;;;2.05;;
23362;SDS011;11853;48.080;11.960;2022-09-09T06:53:32;2.90;;;1.30;;
23362;SDS011;11853;48.080;11.960;2022-09-09T06:56:00;1.83;;;1.70;;
23362;SDS011;11853;48.080;11.960;2022-09-09T06:58:27;2.60;;;1.55;;
23362;SDS011;11853;48.080;11.960;2022-09-09T07:01:01;6.18;;;1.80;;
23362;SDS011;11853;48.080;11.960;2022-09-09T07:03:30;3.95;;;1.75;;
23362;SDS011;11853;48.080;11.960;2022-09-09T07:05:56;2.90;;;1.73;;
23362;SDS011;11853;48.080;11.960;2022-09-09T07:08:22;3.72;;;1.48;;
23362;SDS011;11853;48.080;11.960;2022-09-09T07:10:50;3.85;;;2.00;;
23362;SDS011;11853;48.080;11.960;2022-09-09T07:13:23;5.32;;;2.00;;
23362;SDS011;11853;48.080;11.960;2022-09-09T07:15:53;1.95;;;1.85;;
23362;SDS011;11853;48.080;11.960;2022-09-09T07:18:19;2.42;;;1.75;;
23362;SDS011;11853;48.080;11.960;2022-09-09T07:20:54;2.20;;;1.80;;
23362;SDS011;11853;48.080;11.960;2022-09-09T07:23:24;3.63;;;1.70;;
23362;SDS011;11853;48.080;11.960;2022-09-09T07:25:50;1.80;;;1.42;;
23362;SDS011;11853;48.080;11.960;2022-09-09T07:28:18;3.20;;;1.80;;
23362;SDS011;11853;48.080;11.960;2022-09-09T07:30:52;1.60;;;1.50;;
23362;SDS011;11853;48.080;11.960;2022-09-09T07:33:22;1.65;;;1.42;;
23362;SDS011;11853;48.080;11.960;2022-09-09T07:35:49;1.98;;;1.33;;
23362;SDS011;11853;48.080;11.960;2022-09-09T07:38:25;4.70;;;1.60;;
23362;SDS011;11853;48.080;11.960;2022-09-09T07:40:50;2.60;;;1.52;;
23362;SDS011;11853;48.080;11.960;2022-09-09T07:43:16;1.48;;;1.38;;
23362;SDS011;11853;48.080;11.960;2022-09-09T07:45:44;1.73;;;1.48;;
23362;SDS011;11853;48.080;11.960;2022-09-09T07:48:12;2.15;;;1.55;;
23362;SDS011;11853;48.080;11.960;2022-09-09T07:50:44;2.67;;;1.75;;
23362;SDS011;11853;48.080;11.960;2022-09-09T07:53:09;1.83;;;1.48;;
23362;SDS011;11853;48.080;11.960;2022-09-09T07:55:35;1.60;;;1.42;;
23362;SDS011;11853;48.080;11.960;2022-09-09T07:58:01;1.45;;;1.35;;
23362;SDS011;11853;48.080;11.960;2022-09-09T08:00:26;3.03;;;1.48;;
23362;SDS011;11853;48.080;11.960;2022-09-09T08:02:55;2.20;;;1.52;;
23362;SDS011;11853;48.080;11.960;2022-09-09T08:05:21;2.15;;;1.35;;
23362;SDS011;11853;48.080;11.960;2022-09-09T08:07:47;3.83;;;1.27;;
23362;SDS011;11853;48.080;11.960;2022-09-09T08:10:13;2.15;;;1.40;;
23362;SDS011;11853;48.080;11.960;2022-09-09T08:12:41;3.38;;;1.52;;
23362;SDS011;11853;48.080;11.960;2022-09-09T08:15:06;1.65;;;1.40;;
23362;SDS011;11853;48.080;11.960;2022-09-09T08:17:32;2.53;;;1.50;;
23362;SDS011;11853;48.080;11.960;2022-09-09T08:19:58;4.65;;;1.80;;
23362;SDS011;11853;48.080;11.960;2022-09-09T08:22:28;2.25;;;1.42;;
23362;SDS011;11853;48.080;11.960;2022-09-09T08:24:54;2.47;;;1.80;;
23362;SDS011;11853;48.080;11.960;2022-09-09T08:27:19;1.05;;;0.93;;
23362;SDS011;11853;48.080;11.960;2022-09-09T08:29:45;1.75;;;1.10;;
23362;SDS011;11853;48.080;11.960;2022-09-09T08:32:11;1.05;;;0.95;;
23362;SDS011;11853;48.080;11.960;2022-09-09T08:34:38;3.15;;;1.40;;
23362;SDS011;11853;48.080;11.960;2022-09-09T08:37:03;1.65;;;1.23;;
23362;SDS011;11853;48.080;11.960;2022-09-09T08:39:29;2.50;;;1.00;;
23362;SDS011;11853;48.080;11.960;2022-09-09T08:47:06;1.88;;;0.95;;
23362;SDS011;11853;48.080;11.960;2022-09-09T08:49:58;0.90;;;0.90;;
23362;SDS011;11853;48.080;11.960;2022-09-09T08:58:17;1.15;;;1.05;;
23362;SDS011;11853;48.080;11.960;2022-09-09T09:11:37;2.10;;;1.38;;
23362;SDS011;11853;48.080;11.960;2022-09-09T09:14:08;2.08;;;1.20;;
23362;SDS011;11853;48.080;11.960;2022-09-09T09:16:47;2.50;;;1.13;;
23362;SDS011;11853;48.080;11.960;2022-09-09T09:19:18;1.48;;;1.33;;
23362;SDS011;11853;48.080;11.960;2022-09-09T09:21:45;1.67;;;1.20;;
23362;SDS011;11853;48.080;11.960;2022-09-09T09:27:15;1.55;;;1.20;;
23362;SDS011;11853;48.080;11.960;2022-09-09T09:29:47;1.30;;;1.05;;
23362;SDS011;11853;48.080;11.960;2022-09-09T09:32:16;3.90;;;1.45;;
23362;SDS011;11853;48.080;11.960;2022-09-09T09:34:49;2.03;;;1.23;;
23362;SDS011;11853;48.080;11.960;2022-09-09T09:37:28;3.50;;;1.60;;
23362;SDS011;11853;48.080;11.960;2022-09-09T09:40:07;2.55;;;1.38;;
23362;SDS011;11853;48.080;11.960;2022-09-09T09:42:34;9.25;;;6.95;;
23362;SDS011;11853;48.080;11.960;2022-09-09T09:45:16;3.10;;;2.17;;
23362;SDS011;11853;48.080;11.960;2022-09-09T09:48:09;1.98;;;1.80;;
23362;SDS011;11853;48.080;11.960;2022-09-09T09:50:39;1.88;;;1.70;;
23362;SDS011;11853;48.080;11.960;2022-09-09T09:53:19;3.60;;;1.33;;
23362;SDS011;11853;48.080;11.960;2022-09-09T09:55:59;2.58;;;1.30;;
23362;SDS011;11853;48.080;11.960;2022-09-09T09:58:32;1.20;;;1.10;;
23362;SDS011;11853;48.080;11.960;2022-09-09T10:01:23;1.60;;;1.42;;
23362;SDS011;11853;48.080;11.960;2022-09-09T10:03:57;2.13;;;1.23;;
23362;SDS011;11853;48.080;11.960;2022-09-09T10:06:38;3.85;;;1.40;;
23362;SDS011;11853;48.080;11.960;2022-09-09T10:19:38;3.42;;;1.30;;
23362;SDS011;11853;48.080;11.960;2022-09-09T10:30:23;1.33;;;1.23;;
23362;SDS011;11853;48.080;11.960;2022-09-09T10:41:51;2.38;;;1.27;;
23362;SDS011;11853;48.080;11.960;2022-09-09T10:44:25;2.95;;;1.30;;
23362;SDS011;11853;48.080;11.960;2022-09-09T10:52:31;1.98;;;1.30;;
23362;SDS011;11853;48.080;11.960;2022-09-09T11:00:05;1.95;;;1.17;;
23362;SDS011;11853;48.080;11.960;2022-09-09T11:02:39;2.25;;;1.10;;
23362;SDS011;11853;48.080;11.960;2022-09-09T11:05:18;1.50;;;1.20;;
23362;SDS011;11853;48.080;11.960;2022-09-09T11:07:54;2.08;;;1.20;;
23362;SDS011;11853;48.080;11.960;2022-09-09T11:13:18;1.33;;;1.23;;
23362;SDS011;11853;48.080;11.960;2022-09-09T11:15:46;1.98;;;1.42;;
23362;SDS011;11853;48.080;11.960;2022-09-09T11:18:22;3.70;;;1.75;;
23362;SDS011;11853;48.080;11.960;2022-09-09T11:20:49;1.88;;;1.58;;
23362;SDS011;11853;48.080;11.960;2022-09-09T11:23:36;2.90;;;1.40;;
23362;SDS011;11853;48.080;11.960;2022-09-09T11:26:29;3.28;;;1.20;;
23362;SDS011;11853;48.080;11.960;2022-09-09T11:31:46;2.75;;;1.65;;
23362;SDS011;11853;48.080;11.960;2022-09-09T11:37:11;2.33;;;1.67;;
23362;SDS011;11853;48.080;11.960;2022-09-09T11:42:49;1.42;;;1.20;;
23362;SDS011;11853;48.080;11.960;2022-09-09T11:45:26;1.70;;;1.30;;
23362;SDS011;11853;48.080;11.960;2022-09-09T11:47:55;1.30;;;0.90;;
23362;SDS011;11853;48.080;11.960;2022-09-09T11:52:48;1.63;;;1.25;;
23362;SDS011;11853;48.080;11.960;2022-09-09T12:00:44;1.33;;;1.05;;
23362;SDS011;11853;48.080;11.960;2022-09-09T12:05:56;1.08;;;1.08;;
23362;SDS011;11853;48.080;11.960;2022-09-09T12:08:27;1.40;;;1.10;;
23362;SDS011;11853;48.080;11.960;2022-09-09T12:10:58;1.85;;;0.90;;
23362;SDS011;11853;48.080;11.960;2022-09-09T12:13:28;1.85;;;1.15;;
23362;SDS011;11853;48.080;11.960;2022-09-09T12:15:58;0.98;;;0.82;;
23362;SDS011;11853;48.080;11.960;2022-09-09T12:18:38;1.15;;;1.00;;
23362;SDS011;11853;48.080;11.960;2022-09-09T12:31:58;11.98;;;6.43;;
23362;SDS011;11853;48.080;11.960;2022-09-09T12:34:33;24.27;;;13.13;;
23362;SDS011;11853;48.080;11.960;2022-09-09T12:37:13;13.32;;;6.97;;
23362;SDS011;11853;48.080;11.960;2022-09-09T12:39:52;10.25;;;4.97;;
23362;SDS011;11853;48.080;11.960;2022-09-09T12:42:23;18.70;;;8.80;;
23362;SDS011;11853;48.080;11.960;2022-09-09T12:45:00;20.33;;;10.82;;
23362;SDS011;11853;48.080;11.960;2022-09-09T12:50:33;1.05;;;0.57;;
23362;SDS011;11853;48.080;11.960;2022-09-09T12:53:06;0.98;;;0.60;;
23362;SDS011;11853;48.080;11.960;2022-09-09T12:55:36;0.50;;;0.50;;
23362;SDS011;11853;48.080;11.960;2022-09-09T12:58:04;0.95;;;0.63;;
23362;SDS011;11853;48.080;11.960;2022-09-09T13:00:31;1.10;;;0.65;;
23362;SDS011;11853;48.080;11.960;2022-09-09T13:02:59;0.93;;;0.65;;
23362;SDS011;11853;48.080;11.960;2022-09-09T13:05:33;1.15;;;0.65;;
23362;SDS011;11853;48.080;11.960;2022-09-09T13:08:01;0.55;;;0.50;;
23362;SDS011;11853;48.080;11.960;2022-09-09T13:10:29;1.70;;;0.47;;
23362;SDS011;11853;48.080;11.960;2022-09-09T13:12:59;0.47;;;0.47;;
23362;SDS011;11853;48.080;11.960;2022-09-09T13:15:26;0.60;;;0.60;;
23362;SDS011;11853;48.080;11.960;2022-09-09T13:17:58;0.75;;;0.60;;
23362;SDS011;11853;48.080;11.960;2022-09-09T13:20:29;0.70;;;0.60;;
23362;SDS011;11853;48.080;11.960;2022-09-09T13:22:56;1.85;;;1.02;;
23362;SDS011;11853;48.080;11.960;2022-09-09T13:25:29;0.82;;;0.65;;
23362;SDS011;11853;48.080;11.960;2022-09-09T13:30:29;1.25;;;0.60;;
23362;SDS011;11853;48.080;11.960;2022-09-09T13:33:01;1.77;;;0.75;;
23362;SDS011;11853;48.080;11.960;2022-09-09T13:35:58;0.70;;;0.50;;
23362;SDS011;11853;48.080;11.960;2022-09-09T13:38:28;1.52;;;0.70;;
23362;SDS011;11853;48.080;11.960;2022-09-09T13:40:58;1.38;;;0.60;;
23362;SDS011;11853;48.080;11.960;2022-09-09T13:43:42;1.00;;;0.90;;
23362;SDS011;11853;48.080;11.960;2022-09-09T13:48:54;0.98;;;0.70;;
23362;SDS011;11853;48.080;11.960;2022-09-09T13:51:28;1.50;;;0.68;;
23362;SDS011;11853;48.080;11.960;2022-09-09T13:53:59;0.73;;;0.47;;
23362;SDS011;11853;48.080;11.960;2022-09-09T13:56:25;0.82;;;0.82;;
23362;SDS011;11853;48.080;11.960;2022-09-09T13:58:51;0.82;;;0.82;;
23362;SDS011;11853;48.080;11.960;2022-09-09T14:01:17;2.35;;;0.85;;
23362;SDS011;11853;48.080;11.960;2022-09-09T14:03:43;1.10;;;1.02;;
23362;SDS011;11853;48.080;11.960;2022-09-09T14:06:09;0.68;;;0.63;;
23362;SDS011;11853;48.080;11.960;2022-09-09T14:08:36;3.63;;;1.35;;
23362;SDS011;11853;48.080;11.960;2022-09-09T14:11:03;1.85;;;0.90;;
23362;SDS011;11853;48.080;11.960;2022-09-09T14:13:29;3.05;;;1.77;;
23362;SDS011;11853;48.080;11.960;2022-09-09T14:15:55;2.00;;;1.48;;
23362;SDS011;11853;48.080;11.960;2022-09-09T14:18:21;2.13;;;0.95;;
23362;SDS011;11853;48.080;11.960;2022-09-09T14:20:48;3.20;;;1.23;;
23362;SDS011;11853;48.080;11.960;2022-09-09T14:23:15;1.65;;;1.30;;
23362;SDS011;11853;48.080;11.960;2022-09-09T14:25:42;3.25;;;2.95;;
23362;SDS011;11853;48.080;11.960;2022-09-09T14:28:09;13.40;;;9.10;;
23362;SDS011;11853;48.080;11.960;2022-09-09T14:30:37;7.05;;;5.45;;
23362;SDS011;11853;48.080;11.960;2022-09-09T14:33:07;3.20;;;2.53;;
23362;SDS011;11853;48.080;11.960;2022-09-09T14:35:34;3.80;;;2.03;;
23362;SDS011;11853;48.080;11.960;2022-09-09T14:38:01;2.80;;;1.70;;
23362;SDS011;11853;48.080;11.960;2022-09-09T14:40:28;2.28;;;1.65;;
23362;SDS011;11853;48.080;11.960;2022-09-09T14:42:54;3.15;;;1.23;;
23362;SDS011;11853;48.080;11.960;2022-09-09T14:45:21;1.67;;;1.17;;
23362;SDS011;11853;48.080;11.960;2022-09-09T14:47:50;1.13;;;1.02;;
23362;SDS011;11853;48.080;11.960;2022-09-09T14:50:17;1.33;;;1.20;;
23362;SDS011;11853;48.080;11.960;2022-09-09T14:52:43;1.25;;;0.90;;
23362;SDS011;11853;48.080;11.960;2022-09-09T14:55:09;3.20;;;1.30;;
23362;SDS011;11853;48.080;11.960;2022-09-09T14:57:35;1.50;;;1.25;;
23362;SDS011;11853;48.080;11.960;2022-09-09T15:00:02;1.10;;;1.00;;
23362;SDS011;11853;48.080;11.960;2022-09-09T15:02:29;3.13;;;1.27;;
23362;SDS011;11853;48.080;11.960;2022-09-09T15:04:57;1.50;;;1.40;;
23362;SDS011;11853;48.080;11.960;2022-09-09T15:07:24;1.88;;;1.13;;
23362;SDS011;11853;48.080;11.960;2022-09-09T15:09:50;1.30;;;1.00;;
23362;SDS011;11853;48.080;11.960;2022-09-09T15:12:17;1.20;;;1.10;;
23362;SDS011;11853;48.080;11.960;2022-09-09T15:14:44;2.03;;;1.20;;
23362;SDS011;11853;48.080;11.960;2022-09-09T15:17:10;1.15;;;1.05;;
23362;SDS011;11853;48.080;11.960;2022-09-09T15:19:37;1.73;;;1.25;;
23362;SDS011;11853;48.080;11.960;2022-09-09T15:22:03;1.58;;;1.38;;
23362;SDS011;11853;48.080;11.960;2022-09-09T15:24:32;1.73;;;1.52;;
23362;SDS011;11853;48.080;11.960;2022-09-09T15:26:59;3.08;;;1.50;;
23362;SDS011;11853;48.080;11.960;2022-09-09T15:29:25;1.85;;;1.42;;
23362;SDS011;11853;48.080;11.960;2022-09-09T15:31:52;1.73;;;1.42;;
23362;SDS011;11853;48.080;11.960;2022-09-09T15:34:20;1.23;;;1.13;;
23362;SDS011;11853;48.080;11.960;2022-09-09T15:36:46;2.58;;;1.48;;
23362;SDS011;11853;48.080;11.960;2022-09-09T15:39:12;2.08;;;1.65;;
23362;SDS011;11853;48.080;11.960;2022-09-09T15:41:43;2.45;;;1.50;;
23362;SDS011;11853;48.080;11.960;2022-09-09T15:44:11;1.55;;;1.45;;
23362;SDS011;11853;48.080;11.960;2022-09-09T15:46:38;1.48;;;1.27;;
23362;SDS011;11853;48.080;11.960;2022-09-09T15:49:10;2.65;;;1.40;;
23362;SDS011;11853;48.080;11.960;2022-09-09T15:51:43;1.40;;;1.30;;
23362;SDS011;11853;48.080;11.960;2022-09-09T15:54:18;3.85;;;1.73;;
23362;SDS011;11853;48.080;11.960;2022-09-09T15:56:45;2.53;;;1.77;;
23362;SDS011;11853;48.080;11.960;2022-09-09T15:59:15;1.88;;;1.70;;
23362;SDS011;11853;48.080;11.960;2022-09-09T16:01:41;1.80;;;1.63;;
23362;SDS011;11853;48.080;11.960;2022-09-09T16:04:08;2.58;;;2.45;;
23362;SDS011;11853;48.080;11.960;2022-09-09T16:06:34;2.17;;;1.50;;
23362;SDS011;11853;48.080;11.960;2022-09-09T16:09:02;1.52;;;1.40;;
23362;SDS011;11853;48.080;11.960;2022-09-09T16:11:34;2.42;;;1.80;;
23362;SDS011;11853;48.080;11.960;2022-09-09T16:14:01;2.58;;;1.40;;
23362;SDS011;11853;48.080;11.960;2022-09-09T16:16:29;2.10;;;1.90;;
23362;SDS011;11853;48.080;11.960;2022-09-09T16:18:59;1.70;;;1.60;;
23362;SDS011;11853;48.080;11.960;2022-09-09T16:21:28;2.42;;;2.00;;
23362;SDS011;11853;48.080;11.960;2022-09-09T16:24:00;1.60;;;1.50;;
23362;SDS011;11853;48.080;11.960;2022-09-09T16:26:31;2.30;;;2.08;;
23362;SDS011;11853;48.080;11.960;2022-09-09T16:28:59;1.73;;;1.63;;
23362;SDS011;11853;48.080;11.960;2022-09-09T16:31:26;1.65;;;1.55;;
23362;SDS011;11853;48.080;11.960;2022-09-09T16:33:53;2.47;;;1.90;;
23362;SDS011;11853;48.080;11.960;2022-09-09T16:36:20;4.57;;;2.80;;
23362;SDS011;11853;48.080;11.960;2022-09-09T16:38:54;1.80;;;1.55;;
23362;SDS011;11853;48.080;11.960;2022-09-09T16:41:21;2.13;;;1.58;;
23362;SDS011;11853;48.080;11.960;2022-09-09T16:43:47;3.03;;;1.60;;
23362;SDS011;11853;48.080;11.960;2022-09-09T16:46:18;2.03;;;1.50;;
23362;SDS011;11853;48.080;11.960;2022-09-09T16:48:45;2.10;;;1.90;;
23362;SDS011;11853;48.080;11.960;2022-09-09T16:51:18;1.77;;;1.67;;
23362;SDS011;11853;48.080;11.960;2022-09-09T16:53:44;1.88;;;1.60;;
23362;SDS011;11853;48.080;11.960;2022-09-09T16:56:11;1.80;;;1.60;;
23362;SDS011;11853;48.080;11.960;2022-09-09T16:58:39;2.00;;;1.73;;
23362;SDS011;11853;48.080;11.960;2022-09-09T17:01:05;2.70;;;1.52;;
23362;SDS011;11853;48.080;11.960;2022-09-09T17:03:31;2.35;;;1.60;;
23362;SDS011;11853;48.080;11.960;2022-09-09T17:05:58;2.28;;;1.42;;
23362;SDS011;11853;48.080;11.960;2022-09-09T17:08:28;2.20;;;1.73;;
23362;SDS011;11853;48.080;11.960;2022-09-09T17:10:56;1.60;;;1.50;;
23362;SDS011;11853;48.080;11.960;2022-09-09T17:13:23;3.78;;;1.85;;
23362;SDS011;11853;48.080;11.960;2022-09-09T17:15:50;2.47;;;1.70;;
23362;SDS011;11853;48.080;11.960;2022-09-09T17:18:16;2.22;;;1.70;;
23362;SDS011;11853;48.080;11.960;2022-09-09T17:20:42;1.58;;;1.48;;
23362;SDS011;11853;48.080;11.960;2022-09-09T17:23:10;1.73;;;1.50;;